Time;durP1;ratioP1;P1;durP2;ratioP2;P2;SDS_P1;SDS_P2;PMS_P1;PMS_P2;Temp;Humidity;BMP_temperature;BMP_pressure;BME280_temperature;BME280_humidity;BME280_pressure;Samples;Min_cycle;Max_cycle;Signal;HPM_P1;HPM_P2
2022/01/27 00:05:08;;;;;;;;;;;;;;;2.53;87.83;101491.28;4996059;28;1560;-86
2022/01/27 00:13:16;;;;;;;;;;;;;;;2.50;87.75;101471.94;4996551;28;1740;-86
2022/01/27 00:15:42;;;;;;;;;;;;;;;2.51;88.04;101462.78;4979733;28;1293;-86
2022/01/27 00:18:13;;;;;;;;;;;;;;;2.52;87.93;101462.59;4985798;28;1213;-86
2022/01/27 00:20:39;;;;;;;;;;;;;;;2.52;87.81;101459.06;4998905;28;1257;-88
2022/01/27 00:23:04;;;;;;;;;;;;;;;2.52;87.94;101459.91;4986650;28;1311;-86
2022/01/27 00:25:29;;;;;;;;;;;;;;;2.52;87.72;101442.84;4991538;28;1029;-89
2022/01/27 00:27:54;;;;;;;;;;;;;;;2.51;87.77;101447.41;4996284;28;1403;-88
2022/01/27 00:30:20;;;;;;;;;;;;;;;2.52;87.64;101435.56;4992846;28;1875;-87
2022/01/27 00:32:45;;;;;;;;;;;;;;;2.51;87.89;101430.38;4982597;28;1316;-86
2022/01/27 00:35:10;;;;;;;;;;;;;;;2.52;88.01;101416.66;4999346;28;934;-87
2022/01/27 00:37:36;;;;;;;;;;;;;;;2.54;87.74;101405.66;4981157;28;1347;-86
2022/01/27 00:40:01;;;;;;;;;;;;;;;2.54;87.54;101420.00;4989101;28;1361;-88
2022/01/27 00:42:28;;;;;;;;;;;;;;;2.54;87.44;101414.59;5017652;28;990;-87
2022/01/27 00:44:53;;;;;;;;;;;;;;;2.54;87.14;101406.47;5001190;28;1310;-86
2022/01/27 00:47:19;;;;;;;;;;;;;;;2.54;87.23;101413.75;4995725;28;1422;-86
2022/01/27 00:49:44;;;;;;;;;;;;;;;2.55;87.24;101410.00;4981273;28;1969;-86
2022/01/27 00:52:15;;;;;;;;;;;;;;;2.56;87.25;101404.38;4983130;28;1264;-88
2022/01/27 00:54:40;;;;;;;;;;;;;;;2.57;87.22;101424.97;5003739;28;1575;-86
2022/01/27 00:59:57;;;;;;;;;;;;;;;2.59;87.05;101412.09;4998597;28;1310;-85
2022/01/27 01:02:39;;;;;;;;;;;;;;;2.57;87.05;101403.34;4980958;28;1181;-88
2022/01/27 01:05:35;;;;;;;;;;;;;;;2.58;87.28;101404.19;4998243;28;1192;-87
2022/01/27 01:08:34;;;;;;;;;;;;;;;2.59;86.76;101392.34;4980154;28;1585;-88
2022/01/27 01:15:41;;;;;;;;;;;;;;;2.60;87.00;101377.78;4999848;28;898;-88
2022/01/27 01:18:59;;;;;;;;;;;;;;;2.59;86.94;101385.06;4981508;28;1197;-88
2022/01/27 01:34:29;;;;;;;;;;;;;;;2.54;87.57;101384.84;4997283;28;854;-87
2022/01/27 01:37:02;;;;;;;;;;;;;;;2.58;87.20;101382.56;4979400;28;1505;-87
2022/01/27 01:39:28;;;;;;;;;;;;;;;2.58;87.62;101386.09;4979156;28;1214;-87
2022/01/27 01:41:54;;;;;;;;;;;;;;;2.58;87.23;101388.78;4978652;28;1182;-88
2022/01/27 01:44:19;;;;;;;;;;;;;;;2.57;87.26;101395.25;4979320;28;1197;-88
2022/01/27 01:46:45;;;;;;;;;;;;;;;2.58;87.34;101388.78;4979765;28;1292;-87
2022/01/27 01:49:10;;;;;;;;;;;;;;;2.59;87.27;101393.16;4979987;28;2018;-87
2022/01/27 01:51:37;;;;;;;;;;;;;;;2.58;87.14;101385.25;4997632;28;1209;-87
2022/01/27 01:54:03;;;;;;;;;;;;;;;2.57;86.99;101389.84;4980270;28;1103;-87
2022/01/27 01:56:28;;;;;;;;;;;;;;;2.55;86.99;101391.09;4981036;28;1272;-87
2022/01/27 01:58:53;;;;;;;;;;;;;;;2.54;87.10;101370.50;4998429;28;1120;-86
2022/01/27 02:01:18;;;;;;;;;;;;;;;2.52;86.82;101357.19;4980965;28;1425;-86
2022/01/27 02:03:45;;;;;;;;;;;;;;;2.53;86.80;101356.16;4981500;28;1225;-86
2022/01/27 02:06:18;;;;;;;;;;;;;;;2.52;86.33;101332.88;4980988;28;1308;-87
2022/01/27 02:19:39;;;;;;;;;;;;;;;2.53;85.74;101344.53;4997939;28;613;-86
2022/01/27 02:22:05;;;;;;;;;;;;;;;2.52;86.04;101354.50;4976309;28;1410;-87
2022/01/27 02:24:31;;;;;;;;;;;;;;;2.52;85.88;101356.38;4975997;28;1423;-87
2022/01/27 02:26:57;;;;;;;;;;;;;;;2.51;86.15;101341.19;4976555;28;1197;-86
2022/01/27 02:29:22;;;;;;;;;;;;;;;2.49;85.71;101336.00;4977169;28;1969;-87
2022/01/27 02:31:48;;;;;;;;;;;;;;;2.47;85.40;101331.81;4977464;28;1521;-86
2022/01/27 02:34:13;;;;;;;;;;;;;;;2.45;85.59;101342.88;4977566;28;1193;-86
2022/01/27 02:36:38;;;;;;;;;;;;;;;2.44;85.12;101338.50;4981588;28;1584;-87
2022/01/27 02:39:04;;;;;;;;;;;;;;;2.46;85.03;101338.28;4983167;28;1233;-87
2022/01/27 02:41:31;;;;;;;;;;;;;;;2.45;85.28;101359.06;4981505;28;1218;-86
2022/01/27 02:43:56;;;;;;;;;;;;;;;2.45;85.00;101350.97;4978819;28;1582;-87
2022/01/27 02:46:29;;;;;;;;;;;;;;;2.44;84.53;101343.91;4981636;28;1209;-87
2022/01/27 02:48:54;;;;;;;;;;;;;;;2.47;84.99;101348.03;4979443;28;1875;-87
2022/01/27 02:51:19;;;;;;;;;;;;;;;2.46;84.28;101314.81;4980996;28;1212;-87
2022/01/27 02:53:44;;;;;;;;;;;;;;;2.45;84.43;101304.19;4978851;28;983;-87
2022/01/27 02:56:09;;;;;;;;;;;;;;;2.46;84.38;101308.56;4978979;28;947;-87
2022/01/27 02:58:35;;;;;;;;;;;;;;;2.46;84.25;101290.50;4978649;28;1253;-87
2022/01/27 03:01:00;;;;;;;;;;;;;;;2.45;84.14;101285.28;4978280;28;1205;-86
2022/01/27 03:03:25;;;;;;;;;;;;;;;2.44;83.73;101276.34;4995778;28;1483;-86
2022/01/27 03:05:50;;;;;;;;;;;;;;;2.43;83.88;101260.34;4978776;28;915;-86
2022/01/27 03:08:15;;;;;;;;;;;;;;;2.42;84.39;101254.09;4979134;28;1522;-87
2022/01/27 03:10:49;;;;;;;;;;;;;;;2.41;84.09;101255.13;4978650;28;1963;-87
2022/01/27 03:13:15;;;;;;;;;;;;;;;2.42;84.44;101259.50;4977293;28;1362;-89
2022/01/27 03:15:40;;;;;;;;;;;;;;;2.42;84.23;101283.00;4977353;28;1588;-89
2022/01/27 03:18:05;;;;;;;;;;;;;;;2.39;84.43;101278.81;4978099;28;1185;-86
2022/01/27 03:20:34;;;;;;;;;;;;;;;2.36;83.73;101281.97;4982740;28;1355;-87
2022/01/27 03:23:00;;;;;;;;;;;;;;;2.34;83.63;101280.50;4980310;28;1364;-87
2022/01/27 03:25:25;;;;;;;;;;;;;;;2.31;83.54;101279.03;4981270;28;1188;-86
2022/01/27 03:27:50;;;;;;;;;;;;;;;2.32;83.44;101282.56;4981246;28;1674;-86
2022/01/27 03:30:17;;;;;;;;;;;;;;;2.33;83.40;101289.63;4997048;23;2196;-82
2022/01/27 03:32:42;;;;;;;;;;;;;;;2.34;83.05;101311.03;4974043;28;1656;-82
2022/01/27 03:35:07;;;;;;;;;;;;;;;2.33;82.85;101309.38;4991493;28;1284;-81
2022/01/27 03:37:32;;;;;;;;;;;;;;;2.33;82.88;101297.75;4959213;28;1178;-82
2022/01/27 03:39:57;;;;;;;;;;;;;;;2.32;82.78;101296.06;4976710;28;1048;-82
2022/01/27 03:42:24;;;;;;;;;;;;;;;2.32;83.20;101306.88;4958449;28;1454;-83
2022/01/27 03:44:49;;;;;;;;;;;;;;;2.32;82.80;101306.88;4939637;29;1228;-82
2022/01/27 03:47:14;;;;;;;;;;;;;;;2.28;82.44;101310.00;4939172;29;1085;-83
2022/01/27 03:49:40;;;;;;;;;;;;;;;2.30;82.85;101323.28;4956732;29;1974;-81
2022/01/27 03:52:05;;;;;;;;;;;;;;;2.27;82.40;101326.41;4962184;28;1593;-82
2022/01/27 03:54:30;;;;;;;;;;;;;;;2.23;82.07;101307.06;4958622;28;1540;-82
2022/01/27 03:56:56;;;;;;;;;;;;;;;2.20;81.77;101309.38;4958514;28;1400;-81
2022/01/27 03:59:21;;;;;;;;;;;;;;;2.19;81.99;101297.75;4976171;28;1012;-82
2022/01/27 04:01:46;;;;;;;;;;;;;;;2.18;82.20;101293.38;4958562;28;1573;-82
2022/01/27 04:04:11;;;;;;;;;;;;;;;2.17;82.17;101298.97;4961545;28;1592;-82
2022/01/27 04:06:39;;;;;;;;;;;;;;;2.17;81.94;101298.97;4963192;28;1439;-82
2022/01/27 04:09:06;;;;;;;;;;;;;;;2.16;81.47;101298.13;4962409;28;1951;-82
2022/01/27 04:11:32;;;;;;;;;;;;;;;2.20;82.08;101291.31;4962915;28;1284;-82
2022/01/27 04:13:58;;;;;;;;;;;;;;;2.19;81.85;101300.44;4962959;28;1541;-82
2022/01/27 04:16:23;;;;;;;;;;;;;;;2.20;82.09;101283.19;4964208;28;1092;-82
2022/01/27 04:18:48;;;;;;;;;;;;;;;2.19;82.02;101286.09;4962415;28;1572;-82
2022/01/27 04:21:14;;;;;;;;;;;;;;;2.16;81.86;101268.44;4962757;28;1214;-82
2022/01/27 04:23:40;;;;;;;;;;;;;;;2.16;81.71;101270.31;4962402;28;1616;-82
2022/01/27 04:26:06;;;;;;;;;;;;;;;2.17;80.98;101262.00;4980634;28;1680;-82
2022/01/27 04:28:34;;;;;;;;;;;;;;;2.15;81.24;101265.94;4962572;28;1518;-82
2022/01/27 04:31:02;;;;;;;;;;;;;;;2.17;81.94;101272.81;4962914;28;1894;-82
2022/01/27 04:33:28;;;;;;;;;;;;;;;2.17;81.37;101266.56;4962233;28;1644;-82
2022/01/27 04:35:57;;;;;;;;;;;;;;;2.18;81.72;101257.44;4963355;28;1320;-82
2022/01/27 04:38:27;;;;;;;;;;;;;;;2.18;81.56;101276.34;4962332;28;1546;-82
2022/01/27 04:43:39;;;;;;;;;;;;;;;2.18;81.93;101263.66;4980344;28;1612;-82
2022/01/27 04:46:15;;;;;;;;;;;;;;;2.20;81.44;101255.38;4962767;28;1340;-82
2022/01/27 04:48:46;;;;;;;;;;;;;;;2.18;81.37;101249.34;4963207;28;1313;-82
2022/01/27 04:51:15;;;;;;;;;;;;;;;2.22;81.64;101250.56;4981244;28;1871;-83
2022/01/27 04:54:18;;;;;;;;;;;;;;;2.22;81.77;101237.06;4964288;28;1545;-82
2022/01/27 04:56:34;;;;;;;;;;;;;;;2.21;81.76;101240.81;4978155;28;1501;-82
2022/01/27 04:59:04;;;;;;;;;;;;;;;2.21;81.41;101241.63;4962844;28;1542;-82
2022/01/27 05:01:38;;;;;;;;;;;;;;;2.18;81.81;101235.81;4961436;28;1510;-81
2022/01/27 05:04:09;;;;;;;;;;;;;;;2.19;81.31;101232.91;4942529;29;1221;-82
2022/01/27 05:06:34;;;;;;;;;;;;;;;2.20;81.66;101229.19;4958667;29;1210;-83
2022/01/27 05:08:59;;;;;;;;;;;;;;;2.21;81.26;101211.13;4962019;28;1969;-82
2022/01/27 05:11:29;;;;;;;;;;;;;;;2.26;81.76;101204.03;4961673;28;1286;-82
2022/01/27 05:14:04;;;;;;;;;;;;;;;2.32;81.37;101199.66;4961755;28;1380;-82
2022/01/27 05:16:30;;;;;;;;;;;;;;;2.28;81.09;101203.84;4978410;28;1544;-81
2022/01/27 05:18:55;;;;;;;;;;;;;;;2.25;81.54;101185.34;4962332;28;1226;-82
2022/01/27 05:21:21;;;;;;;;;;;;;;;2.26;81.33;101187.00;4979734;28;1201;-81
2022/01/27 05:23:46;;;;;;;;;;;;;;;2.26;81.53;101170.78;4980087;28;875;-81
2022/01/27 05:26:11;;;;;;;;;;;;;;;2.26;81.52;101179.72;4961846;28;1288;-82
2022/01/27 05:28:36;;;;;;;;;;;;;;;2.27;81.50;101184.09;4978681;28;1446;-83
2022/01/27 05:31:01;;;;;;;;;;;;;;;2.29;81.15;101175.78;4961155;28;1898;-84
2022/01/27 05:33:27;;;;;;;;;;;;;;;2.30;81.38;101190.94;4950833;29;1237;-84
2022/01/27 05:35:52;;;;;;;;;;;;;;;2.31;81.40;101191.75;4960053;29;1068;-82
2022/01/27 05:38:17;;;;;;;;;;;;;;;2.31;81.18;101192.59;4941630;28;1163;-82
2022/01/27 05:40:43;;;;;;;;;;;;;;;2.33;81.10;101187.81;4978814;28;1293;-81
2022/01/27 05:43:09;;;;;;;;;;;;;;;2.32;81.09;101179.91;4980635;28;1241;-82
2022/01/27 05:45:34;;;;;;;;;;;;;;;2.32;80.93;101166.41;4979361;28;1291;-82
2022/01/27 05:47:59;;;;;;;;;;;;;;;2.32;80.90;101166.41;4956349;29;1317;-82
2022/01/27 05:50:25;;;;;;;;;;;;;;;2.31;81.01;101159.34;4956148;28;1902;-82
2022/01/27 05:52:50;;;;;;;;;;;;;;;2.33;81.15;101150.00;4960515;28;1394;-82
2022/01/27 05:55:16;;;;;;;;;;;;;;;2.37;80.65;101150.41;4978848;28;1234;-82
2022/01/27 05:57:41;;;;;;;;;;;;;;;2.36;80.97;101146.06;4942212;29;1343;-82
2022/01/27 06:00:07;;;;;;;;;;;;;;;2.34;81.05;101135.44;4944474;28;1289;-83
2022/01/27 06:02:32;;;;;;;;;;;;;;;2.35;81.05;101130.88;4979421;28;1318;-83
2022/01/27 06:04:58;;;;;;;;;;;;;;;2.38;80.83;101108.84;4972367;28;1533;-82
2022/01/27 06:07:23;;;;;;;;;;;;;;;2.40;80.95;101102.19;4961493;28;1309;-83
2022/01/27 06:09:48;;;;;;;;;;;;;;;2.39;80.84;101095.13;4955302;28;1942;-82
2022/01/27 06:12:13;;;;;;;;;;;;;;;2.41;80.58;101103.84;4963169;28;1359;-81
2022/01/27 06:14:38;;;;;;;;;;;;;;;2.45;81.05;101091.59;4953978;28;1279;-82
2022/01/27 06:17:03;;;;;;;;;;;;;;;2.49;80.85;101081.16;4952312;28;1411;-82
2022/01/27 06:19:29;;;;;;;;;;;;;;;2.50;80.70;101099.88;4961852;28;1213;-82
2022/01/27 06:21:54;;;;;;;;;;;;;;;2.52;80.38;101091.56;4961224;28;1371;-82
2022/01/27 06:24:20;;;;;;;;;;;;;;;2.51;80.26;101076.38;4961248;28;1323;-82
2022/01/27 06:26:45;;;;;;;;;;;;;;;2.53;80.42;101077.84;4978368;28;796;-82
2022/01/27 06:29:10;;;;;;;;;;;;;;;2.52;80.75;101092.38;4979051;28;1961;-82
2022/01/27 06:31:35;;;;;;;;;;;;;;;2.52;81.01;101080.75;4959364;28;1277;-82
2022/01/27 06:34:00;;;;;;;;;;;;;;;2.51;80.64;101077.22;4978224;28;741;-82
2022/01/27 06:36:25;;;;;;;;;;;;;;;2.52;80.55;101064.53;4978589;28;827;-82
2022/01/27 06:38:51;;;;;;;;;;;;;;;2.50;80.98;101053.94;4960664;28;1006;-82
2022/01/27 06:41:16;;;;;;;;;;;;;;;2.49;80.97;101063.09;4978548;28;1169;-82
2022/01/27 06:43:41;;;;;;;;;;;;;;;2.50;80.96;101072.03;4961098;28;1342;-83
2022/01/27 06:46:06;;;;;;;;;;;;;;;2.51;81.01;101061.00;4961207;28;1327;-82
2022/01/27 06:48:31;;;;;;;;;;;;;;;2.52;81.25;101056.44;4960495;28;1010;-82
2022/01/27 06:50:56;;;;;;;;;;;;;;;2.52;81.26;101051.03;4959668;28;1971;-82
2022/01/27 06:53:22;;;;;;;;;;;;;;;2.51;81.01;101052.91;4977638;28;998;-82
2022/01/27 06:55:47;;;;;;;;;;;;;;;2.53;81.33;101052.69;4962032;28;1339;-82
2022/01/27 06:58:13;;;;;;;;;;;;;;;2.55;81.53;101037.91;4962755;28;1178;-82
2022/01/27 07:00:38;;;;;;;;;;;;;;;2.57;81.07;101035.81;4962355;28;1323;-82
2022/01/27 07:03:03;;;;;;;;;;;;;;;2.58;81.28;101037.47;4979854;28;1530;-82
2022/01/27 07:05:31;;;;;;;;;;;;;;;2.58;81.36;101042.88;4964621;28;1389;-83
2022/01/27 07:07:56;;;;;;;;;;;;;;;2.58;81.43;101036.66;4967811;28;1306;-82
2022/01/27 07:10:21;;;;;;;;;;;;;;;2.58;81.39;101036.66;4978842;28;1888;-82
2022/01/27 07:12:47;;;;;;;;;;;;;;;2.58;81.17;101053.69;4978674;28;1227;-82
2022/01/27 07:15:12;;;;;;;;;;;;;;;2.58;81.61;101042.06;4971817;28;1194;-82
2022/01/27 07:17:37;;;;;;;;;;;;;;;2.60;81.63;101035.41;4958194;28;1230;-81
2022/01/27 07:20:03;;;;;;;;;;;;;;;2.64;81.21;101025.81;4958071;28;1178;-82
2022/01/27 07:22:30;;;;;;;;;;;;;;;2.64;81.76;101009.59;4957602;28;1309;-82
2022/01/27 07:24:55;;;;;;;;;;;;;;;2.65;81.66;101005.84;4975375;28;1072;-82
2022/01/27 07:27:21;;;;;;;;;;;;;;;2.65;81.86;101011.25;4958283;28;990;-82
2022/01/27 07:29:46;;;;;;;;;;;;;;;2.67;81.15;101000.22;4975548;28;1886;-81
2022/01/27 07:32:11;;;;;;;;;;;;;;;2.65;81.80;101024.75;4957914;28;1265;-82
2022/01/27 07:34:36;;;;;;;;;;;;;;;2.66;81.69;100995.88;4958193;28;1202;-82
2022/01/27 07:37:02;;;;;;;;;;;;;;;2.66;81.74;101006.66;4975447;28;1037;-82
2022/01/27 07:39:28;;;;;;;;;;;;;;;2.70;82.11;101007.09;4957164;28;1317;-82
2022/01/27 07:41:53;;;;;;;;;;;;;;;2.73;82.14;100987.72;4957606;28;1281;-82
2022/01/27 07:44:18;;;;;;;;;;;;;;;2.66;81.80;100972.38;4957629;28;1380;-82
2022/01/27 07:46:43;;;;;;;;;;;;;;;2.76;82.13;100990.00;4958064;28;852;-82
2022/01/27 07:49:09;;;;;;;;;;;;;;;2.78;81.92;100968.97;4975278;28;1875;-82
2022/01/27 07:51:34;;;;;;;;;;;;;;;2.79;82.04;100963.38;4974714;28;1167;-82
2022/01/27 07:53:59;;;;;;;;;;;;;;;2.78;82.14;100956.28;4958086;28;1289;-83
2022/01/27 07:56:24;;;;;;;;;;;;;;;2.81;82.35;100958.53;4974929;28;997;-81
2022/01/27 07:58:49;;;;;;;;;;;;;;;2.82;82.37;100965.59;4974969;28;800;-82
2022/01/27 08:01:14;;;;;;;;;;;;;;;2.84;82.99;100968.09;4957377;28;1202;-81
2022/01/27 08:03:40;;;;;;;;;;;;;;;2.85;83.03;100965.19;4957312;28;1230;-81
2022/01/27 08:06:06;;;;;;;;;;;;;;;2.87;83.00;100962.25;4938393;29;1331;-81
2022/01/27 08:08:31;;;;;;;;;;;;;;;2.88;83.09;100950.41;4938124;29;1378;-82
2022/01/27 08:10:57;;;;;;;;;;;;;;;2.88;83.09;100947.72;4937956;29;1898;-81
2022/01/27 08:13:22;;;;;;;;;;;;;;;2.87;83.40;100941.47;4937919;29;1332;-82
2022/01/27 08:15:47;;;;;;;;;;;;;;;2.88;83.47;100937.72;4938288;29;1309;-82
2022/01/27 08:18:12;;;;;;;;;;;;;;;2.87;83.88;100948.75;4955380;28;879;-82
2022/01/27 08:20:38;;;;;;;;;;;;;;;2.88;83.99;100945.84;4938024;29;1250;-82
2022/01/27 08:23:05;;;;;;;;;;;;;;;2.88;84.34;100951.25;4955174;29;863;-82
2022/01/27 08:25:30;;;;;;;;;;;;;;;2.87;85.00;100946.03;4955674;29;847;-82
2022/01/27 08:27:58;;;;;;;;;;;;;;;2.87;84.79;100932.53;4938466;29;1174;-82
2022/01/27 08:30:27;;;;;;;;;;;;;;;2.90;85.38;100942.88;4937997;28;1906;-82
2022/01/27 08:33:04;;;;;;;;;;;;;;;2.91;85.09;100942.66;4955444;29;843;-82
2022/01/27 08:35:29;;;;;;;;;;;;;;;2.90;85.72;100934.78;4956041;29;867;-82
2022/01/27 08:37:55;;;;;;;;;;;;;;;2.91;85.35;100964.31;4938542;29;1376;-82
2022/01/27 08:40:20;;;;;;;;;;;;;;;2.89;85.68;100942.06;4938707;29;1330;-82
2022/01/27 08:42:45;;;;;;;;;;;;;;;2.90;85.95;100929.38;4955502;29;769;-82
2022/01/27 08:45:12;;;;;;;;;;;;;;;2.91;86.25;100939.13;4938159;29;1218;-82
2022/01/27 08:47:37;;;;;;;;;;;;;;;2.93;86.56;100932.47;4938062;29;1250;-82
2022/01/27 08:50:04;;;;;;;;;;;;;;;2.93;86.22;100934.34;4940051;29;1907;-82
2022/01/27 08:52:29;;;;;;;;;;;;;;;2.93;86.34;100924.34;4941293;29;1434;-82
2022/01/27 08:54:54;;;;;;;;;;;;;;;2.94;86.74;100926.03;4941603;29;1582;-82
2022/01/27 08:57:19;;;;;;;;;;;;;;;2.95;86.67;100924.16;4941405;29;974;-82
2022/01/27 08:59:46;;;;;;;;;;;;;;;2.97;86.70;100924.75;4941917;29;836;-81
2022/01/27 09:02:12;;;;;;;;;;;;;;;2.97;86.70;100931.00;4941123;29;1300;-82
2022/01/27 09:04:37;;;;;;;;;;;;;;;2.97;87.14;100922.06;4959772;29;1065;-82
2022/01/27 09:07:02;;;;;;;;;;;;;;;2.97;87.07;100917.47;4959835;28;1045;-82
2022/01/27 09:09:27;;;;;;;;;;;;;;;2.97;87.09;100922.06;4938782;29;1956;-82
2022/01/27 09:11:55;;;;;;;;;;;;;;;2.98;87.43;100913.69;4940409;29;1262;-82
2022/01/27 09:14:22;;;;;;;;;;;;;;;2.97;87.55;100911.25;4940539;29;1238;-82
2022/01/27 09:16:47;;;;;;;;;;;;;;;2.96;87.40;100923.09;4958715;29;886;-83
2022/01/27 09:19:12;;;;;;;;;;;;;;;2.93;87.65;100920.81;4958795;29;792;-82
2022/01/27 09:21:46;;;;;;;;;;;;;;;2.94;87.80;100922.47;4942293;28;1285;-83
2022/01/27 09:24:19;;;;;;;;;;;;;;;2.96;87.51;100910.41;4946486;29;1411;-82
2022/01/27 09:29:14;;;;;;;;;;;;;;;2.99;87.75;100915.34;4958873;29;1894;-81
2022/01/27 09:31:39;;;;;;;;;;;;;;;3.01;88.15;100904.31;4957988;28;1170;-82
2022/01/27 09:34:04;;;;;;;;;;;;;;;3.00;88.02;100908.91;4940149;29;1276;-82
2022/01/27 09:36:29;;;;;;;;;;;;;;;3.08;88.51;100906.97;4941711;29;1341;-82
2022/01/27 09:38:54;;;;;;;;;;;;;;;3.11;88.46;100910.06;4941486;29;836;-82
2022/01/27 09:41:20;;;;;;;;;;;;;;;3.15;88.33;100902.34;4958455;28;1218;-82
2022/01/27 09:43:52;;;;;;;;;;;;;;;3.24;88.16;100912.63;4942217;29;1246;-82
2022/01/27 09:46:19;;;;;;;;;;;;;;;3.28;87.98;100913.88;4942260;29;1320;-82
2022/01/27 09:48:47;;;;;;;;;;;;;;;3.30;88.41;100914.47;4942166;29;1349;-82
2022/01/27 09:53:47;;;;;;;;;;;;;;;3.34;88.34;100896.72;4959010;29;973;-82
2022/01/27 09:56:12;;;;;;;;;;;;;;;3.37;88.41;100896.31;4941978;29;1300;-83
2022/01/27 09:58:38;;;;;;;;;;;;;;;3.42;88.40;100899.16;4961687;29;1113;-82
2022/01/27 10:01:04;;;;;;;;;;;;;;;3.42;88.45;100890.19;4960536;28;1198;-82
2022/01/27 10:03:30;;;;;;;;;;;;;;;3.45;88.71;100889.75;4943034;29;1459;-82
2022/01/27 10:06:07;;;;;;;;;;;;;;;3.45;88.63;100886.22;4943685;29;1258;-82
2022/01/27 10:08:34;;;;;;;;;;;;;;;3.47;88.79;100894.97;4948080;28;1202;-82
2022/01/27 10:11:11;;;;;;;;;;;;;;;3.54;88.70;100884.88;4957790;29;1875;-82
2022/01/27 10:13:38;;;;;;;;;;;;;;;3.57;88.88;100887.16;4959649;29;824;-82
2022/01/27 10:16:03;;;;;;;;;;;;;;;3.62;88.84;100884.59;4942153;29;1492;-82
2022/01/27 10:18:35;;;;;;;;;;;;;;;3.62;88.87;100876.47;4958561;29;1049;-82
2022/01/27 10:21:02;;;;;;;;;;;;;;;3.62;88.99;100876.47;4941462;29;1316;-82
2022/01/27 10:23:31;;;;;;;;;;;;;;;3.59;89.12;100864.19;4940480;29;1209;-82
2022/01/27 10:26:03;;;;;;;;;;;;;;;3.65;89.34;100867.91;4939874;29;1364;-82
2022/01/27 10:30:59;;;;;;;;;;;;;;;3.67;89.37;100869.31;4956749;29;1973;-82
2022/01/27 10:33:24;;;;;;;;;;;;;;;3.70;89.47;100865.34;4956665;29;832;-82
2022/01/27 10:35:50;;;;;;;;;;;;;;;3.74;89.14;100864.63;4940120;29;1217;-82
2022/01/27 10:38:16;;;;;;;;;;;;;;;3.78;89.35;100868.56;4958455;29;986;-81
2022/01/27 10:40:43;;;;;;;;;;;;;;;3.85;89.26;100856.81;4939315;29;1344;-82
2022/01/27 10:43:23;;;;;;;;;;;;;;;3.88;89.49;100862.63;4939245;29;1360;-81
2022/01/27 10:46:06;;;;;;;;;;;;;;;3.92;89.15;100860.25;4957071;29;895;-82
2022/01/27 10:48:33;;;;;;;;;;;;;;;3.94;89.08;100858.97;4940199;29;1213;-82
2022/01/27 10:51:08;;;;;;;;;;;;;;;3.96;89.23;100850.63;4941351;29;1923;-82
2022/01/27 10:53:45;;;;;;;;;;;;;;;3.96;89.45;100850.63;4940974;29;1324;-82
2022/01/27 10:56:14;;;;;;;;;;;;;;;3.95;89.33;100849.81;4957959;29;835;-82
2022/01/27 10:58:42;;;;;;;;;;;;;;;3.94;89.32;100842.75;4958462;29;796;-82
2022/01/27 11:01:07;;;;;;;;;;;;;;;3.98;89.57;100848.53;4940893;29;1380;-82
2022/01/27 11:03:32;;;;;;;;;;;;;;;4.01;89.89;100835.34;4941890;29;1375;-83
2022/01/27 11:06:05;;;;;;;;;;;;;;;4.05;89.80;100833.84;4959813;29;804;-83
2022/01/27 11:08:31;;;;;;;;;;;;;;;4.09;89.66;100832.31;4957004;28;1809;-83
2022/01/27 11:10:56;;;;;;;;;;;;;;;4.12;89.59;100821.03;4978811;28;1956;-83
2022/01/27 11:13:23;;;;;;;;;;;;;;;4.17;89.64;100821.16;4959601;28;1196;-83
2022/01/27 11:15:52;;;;;;;;;;;;;;;4.21;89.46;100813.41;4960781;28;1265;-83
2022/01/27 11:18:20;;;;;;;;;;;;;;;4.29;89.82;100821.19;4979940;28;1113;-83
2022/01/27 11:20:53;;;;;;;;;;;;;;;4.32;89.42;100820.75;4963829;28;1360;-83
2022/01/27 11:26:03;;;;;;;;;;;;;;;4.30;89.49;100814.72;4979216;28;614;-84
2022/01/27 11:28:31;;;;;;;;;;;;;;;4.33;89.50;100824.28;4963313;28;1329;-83
2022/01/27 11:31:04;;;;;;;;;;;;;;;4.38;89.29;100816.28;4961815;28;1895;-84
2022/01/27 11:33:30;;;;;;;;;;;;;;;4.39;89.36;100802.50;4963823;28;1226;-83
2022/01/27 11:36:05;;;;;;;;;;;;;;;4.42;89.75;100810.13;4957870;28;1316;-83
2022/01/27 11:38:30;;;;;;;;;;;;;;;4.37;89.96;100796.47;4957679;28;1186;-83
2022/01/27 11:40:55;;;;;;;;;;;;;;;4.40;89.76;100798.72;4957769;28;1229;-83
2022/01/27 11:43:25;;;;;;;;;;;;;;;4.41;89.67;100808.50;4957745;28;1124;-83
2022/01/27 11:45:54;;;;;;;;;;;;;;;4.39;89.59;100810.63;4975704;28;997;-83
2022/01/27 11:48:25;;;;;;;;;;;;;;;4.40;89.73;100811.44;4958202;28;1295;-83
2022/01/27 11:51:08;;;;;;;;;;;;;;;4.40;89.99;100800.63;4957837;28;1963;-83
2022/01/27 11:53:43;;;;;;;;;;;;;;;4.37;89.83;100804.59;4957577;28;1195;-84
2022/01/27 11:56:09;;;;;;;;;;;;;;;4.47;89.69;100802.16;4975276;28;819;-83
2022/01/27 11:58:43;;;;;;;;;;;;;;;4.53;89.92;100805.81;4957929;28;1408;-83
2022/01/27 12:01:21;;;;;;;;;;;;;;;4.55;89.54;100795.56;4957475;28;1280;-83
2022/01/27 12:04:05;;;;;;;;;;;;;;;4.57;89.27;100809.72;4975406;28;804;-83
2022/01/27 12:06:34;;;;;;;;;;;;;;;4.61;89.64;100797.34;4957751;28;1371;-83
2022/01/27 12:09:21;;;;;;;;;;;;;;;4.64;89.47;100788.75;4974941;28;951;-83
2022/01/27 12:11:55;;;;;;;;;;;;;;;4.67;89.71;100782.88;4957393;28;1276;-83
2022/01/27 12:14:23;;;;;;;;;;;;;;;4.78;89.47;100776.59;4958030;28;1434;-83
2022/01/27 12:17:07;;;;;;;;;;;;;;;4.94;88.79;100780.47;4975124;28;860;-82
2022/01/27 12:19:46;;;;;;;;;;;;;;;4.98;88.64;100775.41;4938584;29;1328;-83
2022/01/27 12:22:12;;;;;;;;;;;;;;;5.02;89.11;100765.75;4938216;29;1241;-83
2022/01/27 12:24:49;;;;;;;;;;;;;;;5.02;88.41;100768.47;4958026;28;859;-83
2022/01/27 12:27:18;;;;;;;;;;;;;;;4.95;88.65;100763.97;4961154;29;1005;-84
2022/01/27 12:29:48;;;;;;;;;;;;;;;4.95;89.28;100763.16;4944447;29;1976;-84
2022/01/27 12:32:16;;;;;;;;;;;;;;;4.94;89.41;100759.59;4962800;28;1170;-84
2022/01/27 12:34:45;;;;;;;;;;;;;;;4.93;89.11;100749.03;4963195;29;1060;-84
2022/01/27 12:37:11;;;;;;;;;;;;;;;4.95;89.08;100745.00;4963110;29;1065;-84
2022/01/27 12:39:40;;;;;;;;;;;;;;;4.89;89.65;100740.53;4945983;29;1363;-84
2022/01/27 12:42:07;;;;;;;;;;;;;;;4.89;89.96;100745.13;4945664;29;1297;-84
2022/01/27 12:44:33;;;;;;;;;;;;;;;4.89;89.94;100743.22;4946059;29;1411;-84
2022/01/27 12:47:12;;;;;;;;;;;;;;;4.88;89.40;100743.47;4945535;29;1326;-84
2022/01/27 12:49:40;;;;;;;;;;;;;;;4.89;90.05;100743.22;4945674;29;1890;-85
2022/01/27 12:52:07;;;;;;;;;;;;;;;4.81;89.62;100737.34;4962212;28;1377;-84
2022/01/27 12:54:33;;;;;;;;;;;;;;;4.81;90.22;100748.19;4945764;29;1265;-84
2022/01/27 12:56:58;;;;;;;;;;;;;;;4.86;90.50;100734.72;4945001;29;1467;-84
2022/01/27 12:59:28;;;;;;;;;;;;;;;4.84;89.78;100736.88;4945345;29;1206;-83
2022/01/27 13:01:57;;;;;;;;;;;;;;;4.84;90.29;100735.00;4962522;28;1312;-83
2022/01/27 13:04:23;;;;;;;;;;;;;;;4.84;90.39;100724.16;4961877;28;1555;-84
2022/01/27 13:06:53;;;;;;;;;;;;;;;4.83;90.18;100738.75;4981874;28;1029;-84
2022/01/27 13:09:18;;;;;;;;;;;;;;;4.87;90.10;100734.50;4982082;28;1886;-83
2022/01/27 13:11:45;;;;;;;;;;;;;;;4.90;90.62;100722.38;4961311;28;1357;-83
2022/01/27 13:14:11;;;;;;;;;;;;;;;4.89;89.89;100721.53;4960862;28;1343;-83
2022/01/27 13:16:44;;;;;;;;;;;;;;;4.87;90.09;100720.94;4978123;28;994;-83
2022/01/27 13:19:21;;;;;;;;;;;;;;;4.86;90.32;100724.72;4960490;28;1205;-83
2022/01/27 13:21:52;;;;;;;;;;;;;;;4.85;90.84;100731.19;4977351;28;1340;-83
2022/01/27 13:24:18;;;;;;;;;;;;;;;4.87;90.69;100723.66;4960248;28;1320;-83
2022/01/27 13:26:45;;;;;;;;;;;;;;;4.89;90.58;100726.13;4959858;28;1392;-83
2022/01/27 13:29:11;;;;;;;;;;;;;;;4.88;90.67;100719.88;4977038;28;1953;-83
2022/01/27 13:31:37;;;;;;;;;;;;;;;4.86;91.37;100726.59;4976674;28;1292;-83
2022/01/27 13:34:03;;;;;;;;;;;;;;;4.90;90.99;100714.22;4959990;28;1250;-83
2022/01/27 13:36:28;;;;;;;;;;;;;;;4.92;91.30;100709.41;4976197;28;938;-83
2022/01/27 13:39:10;;;;;;;;;;;;;;;4.92;90.95;100718.34;4977107;28;796;-83
2022/01/27 13:41:39;;;;;;;;;;;;;;;4.94;90.95;100715.38;4959476;28;1298;-83
2022/01/27 13:44:09;;;;;;;;;;;;;;;4.96;91.69;100713.25;4959686;28;1296;-83
2022/01/27 13:46:42;;;;;;;;;;;;;;;4.97;91.17;100692.38;4976896;28;997;-82
2022/01/27 13:49:09;;;;;;;;;;;;;;;4.95;91.24;100696.16;4977266;28;983;-83
2022/01/27 13:51:44;;;;;;;;;;;;;;;4.94;91.42;100689.09;4977414;28;1902;-83
2022/01/27 13:54:10;;;;;;;;;;;;;;;4.93;91.99;100706.41;4960468;28;1291;-83